createdAt,value
2019-04-29T00:01:19.233Z,68.71
2019-04-29T00:03:45.563Z,69.30
2019-04-29T00:06:11.917Z,69.45
2019-04-29T00:08:38.218Z,69.98
2019-04-29T00:11:04.547Z,70.54
2019-04-29T00:13:30.853Z,70.33
2019-04-29T00:15:57.159Z,70.73
2019-04-29T00:18:23.520Z,70.80
2019-04-29T00:20:49.821Z,70.71
2019-04-29T00:23:16.146Z,71.05
2019-04-29T00:25:42.468Z,70.99
2019-04-29T00:28:08.800Z,71.61
2019-04-29T00:30:35.139Z,71.80
2019-04-29T00:33:01.466Z,71.99
2019-04-29T00:35:27.806Z,71.75
2019-04-29T00:37:54.098Z,71.86
2019-04-29T00:40:20.450Z,72.10
2019-04-29T00:42:46.754Z,72.35
2019-04-29T00:45:13.063Z,72.87
2019-04-29T00:47:39.399Z,72.34
2019-04-29T00:50:05.701Z,72.61
2019-04-29T00:52:32.056Z,72.42
2019-04-29T00:54:58.381Z,72.53
2019-04-29T00:57:24.684Z,72.73
2019-04-29T00:59:51.010Z,72.43
2019-04-29T01:02:17.313Z,72.22
2019-04-29T01:04:43.644Z,72.54
2019-04-29T01:07:09.957Z,72.82
2019-04-29T01:09:36.287Z,72.34
2019-04-29T01:12:02.612Z,72.16
2019-04-29T01:14:28.915Z,71.96
2019-04-29T01:16:55.248Z,71.49
2019-04-29T01:19:21.581Z,70.94
2019-04-29T01:21:47.908Z,70.44
2019-04-29T01:24:14.233Z,70.37
2019-04-29T01:26:40.547Z,70.33
2019-04-29T01:29:06.870Z,70.63
2019-04-29T01:31:33.175Z,70.61
2019-04-29T01:33:59.494Z,70.66
2019-04-29T01:36:25.815Z,70.16
2019-04-29T01:38:52.150Z,70.09
2019-04-29T01:41:18.471Z,70.08
2019-04-29T01:43:44.775Z,69.72
2019-04-29T01:46:11.128Z,69.47
2019-04-29T01:48:37.436Z,68.99
2019-04-29T01:51:03.764Z,68.72
2019-04-29T01:53:30.092Z,68.45
2019-04-29T01:55:56.420Z,68.45
2019-04-29T01:58:22.748Z,68.33
2019-04-29T02:00:49.053Z,68.72
2019-04-29T02:03:15.383Z,69.20
2019-04-29T02:05:41.687Z,69.60
2019-04-29T02:08:08.012Z,69.88
2019-04-29T02:10:34.315Z,69.97
2019-04-29T02:13:00.632Z,70.23
2019-04-29T02:15:26.951Z,70.39
2019-04-29T02:17:53.258Z,70.49
2019-04-29T02:20:19.579Z,70.54
2019-04-29T02:22:45.889Z,70.91
2019-04-29T02:25:12.239Z,71.31
2019-04-29T02:27:38.541Z,71.67
2019-04-29T02:30:04.871Z,72.10
2019-04-29T02:32:31.231Z,72.38
2019-04-29T02:34:57.529Z,72.67
2019-04-29T02:37:23.858Z,72.66
2019-04-29T02:39:50.165Z,72.98
2019-04-29T02:42:16.604Z,73.49
2019-04-29T02:44:42.820Z,73.84
2019-04-29T02:47:09.121Z,74.03
2019-04-29T02:49:35.489Z,74.20
2019-04-29T02:52:01.810Z,74.04
2019-04-29T02:54:28.123Z,74.28
2019-04-29T02:56:54.437Z,74.43
2019-04-29T02:59:20.764Z,74.36
2019-04-29T03:01:47.103Z,74.30
2019-04-29T03:04:13.406Z,74.49
2019-04-29T03:06:39.765Z,74.64
2019-04-29T03:09:06.099Z,75.03
2019-04-29T03:11:32.405Z,75.16
2019-04-29T03:13:58.738Z,75.45
2019-04-29T03:16:25.047Z,75.87
2019-04-29T03:18:51.362Z,75.85
2019-04-29T03:21:17.697Z,75.99
2019-04-29T03:23:44.026Z,76.27
2019-04-29T03:26:10.325Z,76.09
2019-04-29T03:28:36.657Z,76.21
2019-04-29T03:31:02.980Z,76.51
2019-04-29T03:33:29.293Z,76.55
2019-04-29T03:35:55.632Z,76.84
2019-04-29T03:38:21.925Z,77.10
2019-04-29T03:40:48.255Z,77.42
2019-04-29T03:43:14.588Z,77.50
2019-04-29T03:45:40.923Z,77.85
2019-04-29T03:48:07.227Z,78.00
2019-04-29T03:50:33.553Z,77.86
2019-04-29T03:52:59.870Z,77.69
2019-04-29T03:55:39.232Z,78.41
2019-04-29T03:57:52.563Z,78.86
2019-04-29T04:00:18.874Z,79.11
2019-04-29T04:02:45.202Z,79.30
2019-04-29T04:05:11.543Z,79.41
2019-04-29T04:07:37.833Z,79.67
2019-04-29T04:10:04.143Z,79.78
2019-04-29T04:12:30.475Z,79.75
2019-04-29T04:14:56.777Z,79.83
2019-04-29T04:17:23.109Z,79.84
2019-04-29T04:19:49.440Z,79.90
2019-04-29T04:22:15.766Z,80.28
2019-04-29T04:24:42.093Z,80.41
2019-04-29T04:27:08.438Z,80.17
2019-04-29T04:29:34.761Z,80.42
2019-04-29T04:32:01.094Z,80.15
2019-04-29T04:34:27.429Z,80.05
2019-04-29T04:36:53.742Z,79.68
2019-04-29T04:39:20.088Z,79.74
2019-04-29T04:41:46.392Z,79.76
2019-04-29T04:44:12.724Z,79.60
2019-04-29T04:46:39.031Z,79.81
2019-04-29T04:49:05.355Z,79.63
2019-04-29T04:51:31.679Z,79.84
2019-04-29T04:53:57.984Z,79.33
2019-04-29T04:56:24.310Z,79.51
2019-04-29T04:58:50.636Z,79.48
2019-04-29T05:01:16.962Z,79.15
2019-04-29T05:03:43.270Z,79.18
2019-04-29T05:06:09.634Z,79.80
2019-04-29T05:08:35.961Z,79.52
2019-04-29T05:11:02.296Z,78.75
2019-04-29T05:13:28.881Z,78.63
2019-04-29T05:15:54.944Z,79.03
2019-04-29T05:18:21.278Z,79.32
2019-04-29T05:20:47.604Z,78.61
2019-04-29T05:23:13.903Z,78.18
2019-04-29T05:25:40.232Z,78.36
2019-04-29T05:28:06.579Z,77.91
2019-04-29T05:30:32.909Z,77.67
2019-04-29T05:32:59.273Z,77.21
2019-04-29T05:35:26.438Z,76.74
2019-04-29T05:37:51.928Z,76.56
2019-04-29T05:40:18.232Z,76.99
2019-04-29T05:42:48.313Z,77.32
2019-04-29T05:45:10.872Z,77.25
2019-04-29T05:47:37.181Z,76.66
2019-04-29T05:50:06.422Z,80.72
2019-04-29T05:52:30.192Z,97.46
2019-04-29T05:54:56.148Z,100.00
2019-04-29T05:57:25.393Z,100.00
2019-04-29T05:59:49.552Z,100.00
2019-04-29T06:02:15.135Z,100.00
2019-04-29T06:04:41.447Z,100.00
2019-04-29T06:07:07.778Z,100.00
2019-04-29T06:09:34.117Z,100.00
2019-04-29T06:12:00.442Z,100.00
2019-04-29T06:14:26.787Z,100.00
2019-04-29T06:16:53.234Z,100.00
2019-04-29T06:19:19.423Z,100.00
2019-04-29T06:21:45.735Z,100.00
2019-04-29T06:24:12.072Z,99.72
2019-04-29T06:26:38.393Z,99.86
2019-04-29T06:29:05.958Z,99.65
2019-04-29T06:31:31.060Z,100.00
2019-04-29T06:34:00.661Z,100.00
2019-04-29T06:36:23.708Z,100.00
2019-04-29T06:38:50.002Z,97.84
2019-04-29T06:41:16.309Z,97.22
2019-04-29T06:43:42.668Z,96.04
2019-04-29T06:46:09.007Z,95.84
2019-04-29T06:48:35.314Z,96.07
2019-04-29T06:51:01.649Z,96.89
2019-04-29T06:53:27.951Z,97.24
2019-04-29T06:55:54.300Z,96.78
2019-04-29T06:58:20.615Z,97.25
2019-04-29T07:00:46.938Z,100.00
2019-04-29T07:03:13.245Z,100.00
2019-04-29T07:05:39.707Z,96.27
2019-04-29T07:08:06.024Z,96.97
2019-04-29T07:10:32.401Z,92.58
2019-04-29T07:12:58.805Z,94.41
2019-04-29T07:15:25.046Z,92.49
2019-04-29T07:17:51.391Z,93.63
2019-04-29T07:20:17.717Z,96.18
2019-04-29T07:22:47.809Z,97.29
2019-04-29T07:25:12.798Z,97.22
2019-04-29T07:27:43.133Z,94.98
2019-04-29T07:30:08.427Z,92.10
2019-04-29T07:32:35.578Z,94.31
2019-04-29T07:35:00.943Z,100.00
2019-04-29T07:37:29.756Z,100.00
2019-04-29T07:39:53.590Z,100.00
2019-04-29T07:42:19.902Z,100.00
2019-04-29T07:44:48.826Z,99.75
2019-04-29T07:47:12.565Z,100.00
2019-04-29T07:49:38.872Z,100.00
2019-04-29T07:52:05.208Z,100.00
2019-04-29T07:54:31.550Z,98.08
2019-04-29T07:56:57.860Z,100.00
2019-04-29T07:59:24.210Z,90.96
2019-04-29T08:01:50.539Z,90.14
2019-04-29T08:04:16.846Z,91.37
2019-04-29T08:06:44.776Z,87.17
2019-04-29T08:09:09.736Z,86.21
2019-04-29T08:11:35.842Z,89.28
2019-04-29T08:14:02.147Z,84.40
2019-04-29T08:16:28.566Z,89.89
2019-04-29T08:18:54.955Z,87.75
2019-04-29T08:21:21.207Z,83.42
2019-04-29T08:23:47.564Z,84.86
2019-04-29T08:26:13.869Z,81.99
2019-04-29T08:28:40.198Z,87.71
2019-04-29T08:31:06.535Z,90.46
2019-04-29T08:33:32.865Z,86.76
2019-04-29T08:35:59.167Z,83.02
2019-04-29T08:38:25.500Z,86.71
2019-04-29T08:40:51.844Z,86.19
2019-04-29T08:43:20.591Z,83.93
2019-04-29T08:45:44.478Z,82.58
2019-04-29T08:48:10.786Z,75.99
2019-04-29T08:50:37.130Z,67.32
2019-04-29T08:53:03.471Z,72.34
2019-04-29T08:55:30.902Z,78.89
2019-04-29T08:57:56.110Z,80.40
2019-04-29T09:00:22.440Z,89.39
2019-04-29T09:02:49.351Z,87.56
2019-04-29T09:05:15.102Z,88.49
2019-04-29T09:07:41.432Z,87.58
2019-04-29T09:10:07.788Z,88.41
2019-04-29T09:12:34.087Z,81.94
2019-04-29T09:15:00.418Z,76.23
2019-04-29T09:17:26.748Z,73.78
2019-04-29T09:19:53.076Z,81.11
2019-04-29T09:22:19.393Z,81.90
2019-04-29T09:24:48.173Z,87.21
2019-04-29T09:27:12.086Z,83.72
2019-04-29T09:29:38.394Z,84.90
2019-04-29T09:32:04.845Z,84.63
2019-04-29T09:34:31.150Z,84.87
2019-04-29T09:36:57.494Z,73.62
2019-04-29T09:39:23.803Z,63.18
2019-04-29T09:41:50.240Z,63.66
2019-04-29T09:44:16.562Z,69.24
2019-04-29T09:46:42.866Z,66.92
2019-04-29T09:49:09.195Z,60.15
2019-04-29T09:51:35.496Z,61.43
2019-04-29T09:54:02.220Z,67.33
2019-04-29T09:56:28.533Z,62.09
2019-04-29T09:58:54.863Z,65.12
2019-04-29T10:01:21.217Z,61.97
2019-04-29T10:03:47.560Z,57.53
2019-04-29T10:06:17.121Z,57.21
2019-04-29T10:08:43.481Z,55.26
2019-04-29T10:11:09.860Z,53.44
2019-04-29T10:13:36.162Z,54.40
2019-04-29T10:16:02.496Z,50.95
2019-04-29T10:18:29.870Z,53.09
2019-04-29T10:20:55.133Z,56.66
2019-04-29T10:23:21.471Z,59.78
2019-04-29T10:25:47.782Z,61.73
2019-04-29T10:28:14.116Z,62.09
2019-04-29T10:30:40.439Z,62.82
2019-04-29T10:33:17.581Z,63.18
2019-04-29T10:35:40.729Z,63.18
2019-04-29T10:38:06.029Z,63.32
2019-04-29T10:40:32.336Z,64.07
2019-04-29T10:42:58.683Z,64.93
2019-04-29T10:45:25.521Z,65.41
2019-04-29T10:47:51.805Z,63.25
2019-04-29T10:50:23.774Z,63.07
2019-04-29T10:52:47.927Z,64.00
2019-04-29T10:55:14.262Z,63.00
2019-04-29T10:57:40.660Z,60.80
2019-04-29T11:00:06.977Z,60.04
2019-04-29T11:02:33.311Z,59.24
2019-04-29T11:05:02.468Z,57.00
2019-04-29T11:07:26.769Z,56.83
2019-04-29T11:09:52.638Z,57.42
2019-04-29T11:12:18.631Z,55.94
2019-04-29T11:14:44.941Z,53.64
2019-04-29T11:17:16.476Z,52.17
2019-04-29T11:19:39.884Z,53.50
2019-04-29T11:22:04.070Z,54.15
2019-04-29T11:24:32.822Z,54.79
2019-04-29T11:27:10.759Z,53.72
2019-04-29T11:29:27.465Z,53.15
2019-04-29T11:31:54.197Z,52.82
2019-04-29T11:34:17.806Z,52.62
2019-04-29T11:36:44.136Z,51.75
2019-04-29T11:39:09.098Z,52.21
2019-04-29T11:41:34.691Z,52.11
2019-04-29T11:44:00.996Z,50.63
2019-04-29T11:46:27.558Z,50.92
2019-04-29T11:48:53.827Z,51.44
2019-04-29T11:51:20.380Z,50.85
2019-04-29T11:53:46.705Z,51.31
2019-04-29T11:56:13.033Z,51.66
2019-04-29T11:58:39.347Z,50.66
2019-04-29T12:01:08.511Z,49.45
2019-04-29T12:03:32.054Z,55.05
2019-04-29T12:05:58.357Z,55.12
2019-04-29T12:08:24.698Z,57.07
2019-04-29T12:11:05.964Z,60.35
2019-04-29T12:13:18.932Z,63.23
2019-04-29T12:15:45.039Z,58.45
2019-04-29T12:18:09.976Z,58.55
2019-04-29T12:20:36.305Z,55.66
2019-04-29T12:23:02.631Z,56.64
2019-04-29T12:25:29.299Z,55.91
2019-04-29T12:28:01.444Z,56.04
2019-04-29T12:30:21.713Z,58.03
2019-04-29T12:32:48.044Z,54.50
2019-04-29T12:35:16.721Z,53.28
2019-04-29T12:37:40.859Z,54.43
2019-04-29T12:40:09.859Z,60.36
2019-04-29T12:42:35.727Z,59.30
2019-04-29T12:44:59.835Z,60.07
2019-04-29T12:47:27.146Z,47.37
2019-04-29T12:49:52.720Z,44.73
2019-04-29T12:52:18.996Z,44.11
2019-04-29T12:54:46.077Z,43.01
2019-04-29T12:57:11.641Z,44.16
2019-04-29T12:59:38.085Z,46.28
2019-04-29T13:02:04.810Z,46.36
2019-04-29T13:04:30.757Z,46.70
2019-04-29T13:06:57.061Z,46.34
2019-04-29T13:09:23.423Z,47.88
2019-04-29T13:11:56.119Z,46.97
2019-04-29T13:14:16.111Z,48.96
2019-04-29T13:16:42.474Z,49.61
2019-04-29T13:19:13.277Z,50.37
2019-04-29T13:21:35.269Z,50.43
2019-04-29T13:24:13.507Z,50.01
2019-04-29T13:26:28.852Z,50.30
2019-04-29T13:29:00.353Z,49.18
2019-04-29T13:31:20.619Z,48.64
2019-04-29T13:33:51.005Z,50.34
2019-04-29T13:36:19.839Z,50.62
2019-04-29T13:38:41.569Z,50.46
2019-04-29T13:41:13.935Z,50.78
2019-04-29T13:43:35.617Z,50.21
2019-04-29T13:46:04.964Z,49.40
2019-04-29T13:48:26.866Z,50.80
2019-04-29T13:50:53.173Z,50.61
2019-04-29T13:53:19.565Z,50.75
2019-04-29T13:55:49.131Z,51.99
2019-04-29T13:58:12.173Z,52.50
2019-04-29T14:00:38.509Z,48.71
2019-04-29T14:03:07.127Z,51.14
2019-04-29T14:05:32.404Z,51.92
2019-04-29T14:07:57.505Z,51.38
2019-04-29T14:10:23.866Z,52.45
2019-04-29T14:13:00.758Z,52.10
2019-04-29T14:15:16.473Z,51.68
2019-04-29T14:17:42.883Z,51.38
2019-04-29T14:20:10.804Z,49.66
2019-04-29T14:22:35.525Z,49.21
2019-04-29T14:25:01.960Z,50.21
2019-04-29T14:27:28.281Z,50.67
2019-04-29T14:29:54.607Z,50.13
2019-04-29T14:32:33.403Z,50.48
2019-04-29T14:34:47.273Z,48.45
2019-04-29T14:37:25.027Z,48.10
2019-04-29T14:39:39.888Z,48.22
2019-04-29T14:42:06.218Z,48.15
2019-04-29T14:44:32.525Z,47.09
2019-04-29T14:46:58.857Z,47.27
2019-04-29T14:49:25.187Z,46.96
2019-04-29T14:51:51.516Z,46.60
2019-04-29T14:54:17.837Z,46.03
2019-04-29T14:56:44.149Z,46.24
2019-04-29T14:59:10.593Z,47.31
2019-04-29T15:01:36.957Z,47.17
2019-04-29T15:04:17.316Z,47.36
2019-04-29T15:06:29.653Z,47.42
2019-04-29T15:08:55.919Z,47.49
2019-04-29T15:11:31.346Z,47.77
2019-04-29T15:13:49.022Z,48.10
2019-04-29T15:16:15.528Z,48.21
2019-04-29T15:18:48.120Z,48.57
2019-04-29T15:21:08.505Z,48.58
2019-04-29T15:23:33.786Z,48.66
2019-04-29T15:26:00.106Z,48.87
2019-04-29T15:28:26.430Z,48.69
2019-04-29T15:30:52.766Z,48.01
2019-04-29T15:33:19.108Z,47.43
2019-04-29T15:35:45.487Z,47.02
2019-04-29T15:38:11.753Z,47.38
2019-04-29T15:40:42.951Z,46.74
2019-04-29T15:43:04.368Z,46.60
2019-04-29T15:45:32.416Z,46.29
2019-04-29T15:47:57.010Z,46.22
2019-04-29T15:50:23.361Z,47.37
2019-04-29T15:52:49.700Z,47.35
2019-04-29T15:55:15.994Z,47.05
2019-04-29T15:57:49.693Z,46.29
2019-04-29T16:00:21.207Z,46.48
2019-04-29T16:02:35.936Z,43.86
2019-04-29T16:05:04.590Z,41.98
2019-04-29T16:07:27.629Z,40.85
2019-04-29T16:09:53.933Z,39.84
2019-04-29T16:12:20.267Z,40.03
2019-04-29T16:14:49.188Z,39.50
2019-04-29T16:17:13.052Z,39.47
2019-04-29T16:19:39.237Z,49.60
2019-04-29T16:22:05.600Z,44.14
2019-04-29T16:24:37.612Z,39.71
2019-04-29T16:27:01.191Z,38.00
2019-04-29T16:29:24.532Z,37.75
2019-04-29T16:31:55.057Z,37.73
2019-04-29T16:34:17.227Z,37.87
2019-04-29T16:36:49.025Z,37.56
2019-04-29T16:39:10.248Z,37.23
2019-04-29T16:41:36.588Z,37.54
2019-04-29T16:44:02.920Z,37.45
2019-04-29T16:46:35.940Z,36.98
2019-04-29T16:48:56.161Z,37.40
2019-04-29T16:51:22.483Z,37.29
2019-04-29T16:53:48.798Z,37.63
2019-04-29T16:56:16.312Z,37.35
2019-04-29T16:58:41.469Z,38.09
2019-04-29T17:01:07.838Z,37.30
2019-04-29T17:03:34.139Z,37.82
2019-04-29T17:06:00.450Z,37.46
2019-04-29T17:08:26.856Z,37.34
2019-04-29T17:10:53.121Z,38.02
2019-04-29T17:13:23.775Z,37.05
2019-04-29T17:15:52.176Z,37.42
2019-04-29T17:18:12.083Z,37.31
2019-04-29T17:20:38.439Z,36.84
2019-04-29T17:23:04.709Z,36.86
2019-04-29T17:25:31.045Z,36.76
2019-04-29T17:27:57.350Z,37.11
2019-04-29T17:30:23.983Z,36.67
2019-04-29T17:32:50.833Z,36.78
2019-04-29T17:35:21.191Z,36.93
2019-04-29T17:37:42.649Z,36.52
2019-04-29T17:40:08.974Z,36.80
2019-04-29T17:42:35.433Z,37.10
2019-04-29T17:45:10.594Z,37.24
2019-04-29T17:47:31.122Z,37.26
2019-04-29T17:49:57.490Z,39.14
2019-04-29T17:52:25.825Z,39.07
2019-04-29T17:54:50.289Z,38.91
2019-04-29T17:57:28.335Z,38.70
2019-04-29T17:59:42.998Z,38.89
2019-04-29T18:02:09.306Z,39.08
2019-04-29T18:04:36.051Z,39.43
2019-04-29T18:07:10.546Z,40.96
2019-04-29T18:09:28.314Z,42.94
2019-04-29T18:11:57.498Z,44.79
2019-04-29T18:14:20.977Z,46.36
2019-04-29T18:16:47.958Z,47.72
2019-04-29T18:19:15.787Z,48.81
2019-04-29T18:21:43.460Z,49.82
2019-04-29T18:24:06.295Z,50.76
2019-04-29T18:26:32.616Z,51.46
2019-04-29T18:29:03.461Z,51.96
2019-04-29T18:31:26.458Z,52.49
2019-04-29T18:33:51.555Z,53.01
2019-04-29T18:36:23.609Z,53.46
2019-04-29T18:38:47.366Z,53.71
2019-04-29T18:41:10.541Z,54.04
2019-04-29T18:43:36.840Z,54.53
2019-04-29T18:46:05.975Z,54.91
2019-04-29T18:48:29.494Z,55.12
2019-04-29T18:50:57.062Z,55.37
2019-04-29T18:53:22.141Z,55.52
2019-04-29T18:55:48.471Z,55.86
2019-04-29T18:58:16.016Z,56.28
2019-04-29T19:00:41.135Z,56.19
2019-04-29T19:03:07.502Z,56.48
2019-04-29T19:05:35.698Z,56.66
2019-04-29T19:08:12.375Z,56.92
2019-04-29T19:10:34.512Z,57.20
2019-04-29T19:13:00.100Z,57.09
2019-04-29T19:15:21.072Z,57.47
2019-04-29T19:17:58.783Z,57.67
2019-04-29T19:20:16.697Z,57.90
2019-04-29T19:22:43.928Z,58.07
2019-04-29T19:25:08.733Z,58.23
2019-04-29T19:27:37.089Z,58.20
2019-04-29T19:29:59.207Z,58.15
2019-04-29T19:32:25.532Z,58.34
2019-04-29T19:34:54.921Z,58.38
2019-04-29T19:37:18.307Z,58.61
2019-04-29T19:39:44.984Z,58.77
2019-04-29T19:42:10.941Z,59.23
2019-04-29T19:44:37.280Z,60.77
2019-04-29T19:47:03.611Z,61.17
2019-04-29T19:49:29.927Z,60.34
2019-04-29T19:51:56.305Z,60.08
2019-04-29T19:54:24.557Z,60.45
2019-04-29T19:56:48.914Z,60.96
2019-04-29T19:59:17.363Z,62.73
2019-04-29T20:01:42.115Z,62.94
2019-04-29T20:04:15.645Z,62.37
2019-04-29T20:06:36.767Z,62.16
2019-04-29T20:09:01.908Z,62.35
2019-04-29T20:11:32.580Z,62.47
2019-04-29T20:14:03.755Z,62.05
2019-04-29T20:16:24.818Z,63.02
2019-04-29T20:18:58.482Z,64.32
2019-04-29T20:21:20.875Z,64.02
2019-04-29T20:23:39.451Z,64.89
2019-04-29T20:26:13.882Z,64.61
2019-04-29T20:28:31.236Z,64.39
2019-04-29T20:31:15.119Z,64.47
2019-04-29T20:33:23.906Z,64.03
2019-04-29T20:35:50.230Z,63.55
2019-04-29T20:38:16.479Z,63.79
2019-04-29T20:40:43.493Z,63.71
2019-04-29T20:43:09.248Z,62.71
2019-04-29T20:45:35.666Z,62.11
2019-04-29T20:48:01.849Z,60.39
2019-04-29T20:50:28.171Z,59.85
2019-04-29T20:52:59.107Z,59.32
2019-04-29T20:55:20.778Z,59.27
2019-04-29T20:57:47.916Z,59.32
2019-04-29T21:00:13.495Z,59.07
2019-04-29T21:02:39.791Z,58.64
2019-04-29T21:05:07.150Z,58.52
2019-04-29T21:07:32.299Z,58.02
2019-04-29T21:11:22.074Z,57.82
2019-04-29T21:13:48.882Z,57.65
2019-04-29T21:16:15.032Z,57.35
2019-04-29T21:18:39.613Z,57.42
2019-04-29T21:21:07.871Z,57.58
2019-04-29T21:23:35.505Z,57.27
2019-04-29T21:26:00.402Z,57.01
2019-04-29T21:28:24.923Z,57.31
2019-04-29T21:30:51.228Z,57.41
2019-04-29T21:33:20.976Z,57.13
2019-04-29T21:35:45.474Z,57.49
2019-04-29T21:38:10.318Z,57.56
2019-04-29T21:40:36.658Z,57.42
2019-04-29T21:43:06.267Z,57.64
2019-04-29T21:45:29.306Z,57.91
2019-04-29T21:47:55.664Z,58.08
2019-04-29T21:50:22.001Z,57.67
2019-04-29T21:52:48.329Z,58.00
2019-04-29T21:55:16.126Z,58.13
2019-04-29T21:57:40.954Z,58.28
2019-04-29T22:00:07.278Z,58.35
2019-04-29T22:02:35.650Z,58.07
2019-04-29T22:04:59.936Z,58.09
2019-04-29T22:07:26.241Z,58.45
2019-04-29T22:09:55.477Z,58.26
2019-04-29T22:12:20.567Z,58.77
2019-04-29T22:14:53.009Z,59.05
2019-04-29T22:17:11.648Z,58.99
2019-04-29T22:19:37.996Z,58.97
2019-04-29T22:22:05.689Z,58.92
2019-04-29T22:24:30.705Z,59.32
2019-04-29T22:27:04.168Z,59.01
2019-04-29T22:29:23.336Z,59.21
2019-04-29T22:31:49.695Z,59.90
2019-04-29T22:34:19.139Z,59.80
2019-04-29T22:36:42.311Z,60.17
2019-04-29T22:39:08.658Z,60.21
2019-04-29T22:41:34.969Z,60.33
2019-04-29T22:44:01.296Z,60.56
2019-04-29T22:46:27.606Z,60.67
2019-04-29T22:48:55.705Z,60.74
2019-04-29T22:51:20.270Z,61.10
2019-04-29T22:53:48.497Z,61.08
2019-04-29T22:56:14.235Z,61.13
2019-04-29T22:58:39.510Z,61.03
2019-04-29T23:01:06.800Z,60.98
2019-04-29T23:03:32.727Z,60.61
2019-04-29T23:06:00.163Z,60.51
2019-04-29T23:08:25.184Z,60.36
2019-04-29T23:10:50.972Z,60.34
2019-04-29T23:13:17.301Z,60.03
2019-04-29T23:15:45.431Z,59.46
2019-04-29T23:18:09.954Z,58.93
2019-04-29T23:20:36.300Z,58.74
2019-04-29T23:23:02.628Z,58.58
2019-04-29T23:25:29.992Z,58.50
2019-04-29T23:27:55.275Z,58.22
2019-04-29T23:30:21.619Z,58.09
2019-04-29T23:32:48.132Z,57.88
2019-04-29T23:35:15.326Z,57.73
2019-04-29T23:37:41.643Z,57.98
2019-04-29T23:40:07.948Z,58.08
2019-04-29T23:42:34.275Z,58.10
2019-04-29T23:45:00.643Z,58.26
2019-04-29T23:47:26.946Z,58.46
2019-04-29T23:49:53.276Z,58.80
2019-04-29T23:52:19.707Z,58.85
2019-04-29T23:54:48.555Z,58.57
2019-04-29T23:57:16.294Z,58.31
2019-04-29T23:59:38.700Z,58.47
